createdAt,value
2019-04-20T00:01:28.696Z,54.30
2019-04-20T00:03:55.629Z,53.77
2019-04-20T00:06:26.975Z,53.10
2019-04-20T00:09:04.717Z,53.00
2019-04-20T00:11:41.025Z,52.80
2019-04-20T00:14:05.773Z,52.80
2019-04-20T00:16:31.704Z,53.23
2019-04-20T00:19:03.541Z,53.20
2019-04-20T00:21:46.422Z,52.37
2019-04-20T00:24:21.989Z,52.73
2019-04-20T00:27:20.712Z,53.23
2019-04-20T00:29:35.284Z,52.57
2019-04-20T00:32:03.064Z,52.60
2019-04-20T00:34:29.496Z,52.57
2019-04-20T00:36:54.064Z,52.50
2019-04-20T00:39:24.151Z,52.40
2019-04-20T00:42:00.427Z,52.80
2019-04-20T00:44:31.973Z,52.03
2019-04-20T00:47:08.627Z,52.57
2019-04-20T00:50:02.540Z,52.00
2019-04-20T00:52:52.293Z,52.87
2019-04-20T00:54:51.483Z,51.50
2019-04-20T00:57:34.020Z,52.77
2019-04-20T01:00:10.970Z,52.33
2019-04-20T01:02:36.141Z,52.23
2019-04-20T01:05:12.829Z,52.73
2019-04-20T01:08:01.978Z,52.90
2019-04-20T01:10:37.202Z,52.23
2019-04-20T01:13:11.496Z,52.30
2019-04-20T01:15:46.459Z,52.73
2019-04-20T01:18:04.506Z,52.67
2019-04-20T01:20:34.333Z,52.10
2019-04-20T01:23:10.018Z,51.80
2019-04-20T01:25:40.454Z,52.00
2019-04-20T01:28:26.370Z,52.00
2019-04-20T01:30:44.612Z,51.43
2019-04-20T01:33:26.028Z,51.87
2019-04-20T01:35:57.106Z,51.77
2019-04-20T01:38:30.739Z,51.90
2019-04-20T01:40:44.551Z,52.43
2019-04-20T01:43:14.387Z,51.63
2019-04-20T01:45:45.748Z,51.77
2019-04-20T01:48:23.532Z,51.40
2019-04-20T01:50:55.074Z,52.30
2019-04-20T01:53:41.361Z,51.97
2019-04-20T01:56:12.709Z,51.93
2019-04-20T01:58:52.464Z,52.53
2019-04-20T02:01:36.203Z,52.20
2019-04-20T02:04:17.200Z,51.30
2019-04-20T02:06:47.180Z,51.83
2019-04-20T02:09:18.688Z,51.67
2019-04-20T02:11:47.375Z,51.80
2019-04-20T02:14:25.613Z,51.53
2019-04-20T02:16:52.857Z,51.83
2019-04-20T02:19:34.727Z,50.83
2019-04-20T02:22:03.862Z,51.37
2019-04-20T02:24:22.180Z,51.50
2019-04-20T02:26:52.046Z,51.37
2019-04-20T02:29:45.055Z,51.50
2019-04-20T02:35:03.386Z,51.50
2019-04-20T02:38:01.619Z,51.60
2019-04-20T02:40:16.121Z,50.87
2019-04-20T02:42:51.049Z,52.20
2019-04-20T02:45:24.120Z,52.40
2019-04-20T02:47:53.522Z,51.33
2019-04-20T02:50:36.097Z,51.63
2019-04-20T02:52:56.848Z,52.20
2019-04-20T02:55:28.184Z,51.60
2019-04-20T02:58:09.344Z,51.53
2019-04-20T03:02:42.894Z,51.30
2019-04-20T03:05:13.329Z,51.53
2019-04-20T03:07:50.563Z,51.53
2019-04-20T03:10:25.078Z,51.37
2019-04-20T03:12:55.060Z,52.33
2019-04-20T03:15:29.529Z,51.97
2019-04-20T03:17:59.659Z,51.13
2019-04-20T03:20:29.860Z,51.57
2019-04-20T03:23:17.657Z,51.77
2019-04-20T03:25:55.411Z,51.93
2019-04-20T03:28:28.099Z,51.67
2019-04-20T03:31:36.631Z,51.93
2019-04-20T03:33:56.081Z,51.53
2019-04-20T03:36:12.219Z,51.37
2019-04-20T03:38:38.655Z,52.23
2019-04-20T03:40:59.464Z,51.57
2019-04-20T03:43:18.595Z,51.43
2019-04-20T03:45:56.175Z,51.50
2019-04-20T03:48:39.314Z,51.57
2019-04-20T03:51:14.752Z,51.77
2019-04-20T03:53:43.325Z,51.27
2019-04-20T03:56:42.286Z,51.70
2019-04-20T03:59:34.644Z,52.13
2019-04-20T04:05:08.747Z,51.37
2019-04-20T04:07:30.404Z,52.00
2019-04-20T04:10:09.794Z,52.03
2019-04-20T04:13:05.156Z,51.37
2019-04-20T04:15:42.579Z,50.57
2019-04-20T04:18:13.896Z,51.10
2019-04-20T04:20:49.205Z,51.03
2019-04-20T04:23:32.640Z,50.97
2019-04-20T04:26:00.723Z,51.47
2019-04-20T04:28:28.433Z,51.00
2019-04-20T04:31:10.943Z,51.80
2019-04-20T04:33:53.190Z,51.13
2019-04-20T04:36:10.434Z,50.93
2019-04-20T04:41:19.652Z,51.10
2019-04-20T04:43:45.346Z,51.30
2019-04-20T04:45:59.558Z,50.83
2019-04-20T04:48:34.791Z,50.37
2019-04-20T04:51:07.234Z,52.23
2019-04-20T04:53:44.304Z,51.07
2019-04-20T04:56:09.538Z,52.07
2019-04-20T04:58:36.270Z,52.00
2019-04-20T05:01:11.791Z,51.60
2019-04-20T05:04:04.852Z,50.53
2019-04-20T05:06:31.311Z,51.33
2019-04-20T05:09:05.214Z,52.03
2019-04-20T05:11:34.949Z,51.47
2019-04-20T05:14:11.275Z,52.37
2019-04-20T05:16:55.253Z,50.73
2019-04-20T05:19:29.499Z,51.47
2019-04-20T05:22:09.288Z,51.13
2019-04-20T05:24:43.590Z,51.07
2019-04-20T05:27:52.350Z,51.80
2019-04-20T05:30:05.679Z,51.23
2019-04-20T05:32:48.043Z,51.93
2019-04-20T05:35:39.229Z,52.40
2019-04-20T05:38:08.131Z,51.63
2019-04-20T05:40:34.043Z,52.07
2019-04-20T05:43:24.302Z,52.03
2019-04-20T05:45:47.777Z,51.17
2019-04-20T05:48:23.277Z,52.33
2019-04-20T05:50:58.785Z,52.07
2019-04-20T05:53:32.596Z,52.00
2019-04-20T05:55:55.973Z,52.20
2019-04-20T05:58:33.044Z,53.07
2019-04-20T06:01:06.753Z,52.50
2019-04-20T06:03:35.590Z,53.07
2019-04-20T06:06:22.154Z,52.33
2019-04-20T06:11:07.974Z,52.67
2019-04-20T06:13:56.880Z,53.43
2019-04-20T06:16:46.904Z,53.93
2019-04-20T06:19:20.903Z,53.63
2019-04-20T06:22:14.907Z,54.63
2019-04-20T06:24:37.502Z,54.27
2019-04-20T06:27:00.980Z,53.67
2019-04-20T06:29:31.255Z,54.57
2019-04-20T06:32:06.915Z,53.80
2019-04-20T06:34:39.148Z,53.73
2019-04-20T06:37:18.752Z,54.33
2019-04-20T06:39:40.175Z,54.33
2019-04-20T06:42:15.215Z,54.97
2019-04-20T06:44:48.397Z,56.40
2019-04-20T06:49:42.048Z,55.17
2019-04-20T06:52:28.570Z,55.43
2019-04-20T06:54:57.971Z,55.07
2019-04-20T06:57:55.091Z,54.80
2019-04-20T07:00:15.799Z,56.00
2019-04-20T07:10:38.075Z,55.40
2019-04-20T07:12:51.758Z,55.57
2019-04-20T07:15:28.546Z,56.10
2019-04-20T07:18:13.812Z,56.17
2019-04-20T07:21:05.751Z,55.87
2019-04-20T07:23:32.687Z,56.53
2019-04-20T07:26:14.659Z,56.67
2019-04-20T07:28:41.063Z,56.50
2019-04-20T07:31:07.661Z,57.27
2019-04-20T07:33:44.642Z,57.47
2019-04-20T07:37:04.254Z,57.40
2019-04-20T07:39:30.219Z,56.93
2019-04-20T07:42:00.668Z,57.80
2019-04-20T07:44:34.286Z,57.70
2019-04-20T07:49:32.945Z,57.50
2019-04-20T07:51:43.964Z,58.60
2019-04-20T07:54:40.208Z,57.73
2019-04-20T07:57:03.877Z,58.30
2019-04-20T07:59:28.869Z,58.43
2019-04-20T08:02:43.890Z,57.17
2019-04-20T08:05:09.469Z,58.57
2019-04-20T08:07:42.642Z,57.83
2019-04-20T08:10:02.892Z,59.17
2019-04-20T08:13:02.280Z,59.23
2019-04-20T08:15:40.361Z,58.27
2019-04-20T08:17:59.917Z,59.10
2019-04-20T08:20:25.700Z,57.57
2019-04-20T08:22:58.791Z,60.00
2019-04-20T08:25:23.538Z,59.83
2019-04-20T08:28:12.769Z,59.30
2019-04-20T08:31:09.319Z,59.63
2019-04-20T08:33:59.502Z,60.10
2019-04-20T08:36:25.718Z,59.53
2019-04-20T08:41:20.717Z,59.57
2019-04-20T08:50:20.871Z,59.80
2019-04-20T08:55:19.669Z,59.87
2019-04-20T08:57:33.584Z,59.87
2019-04-20T09:00:07.087Z,60.33
2019-04-20T09:02:41.202Z,59.43
2019-04-20T09:05:28.133Z,59.47
2019-04-20T09:07:55.357Z,61.00
2019-04-20T09:10:39.509Z,61.83
2019-04-20T09:12:57.440Z,61.07
2019-04-20T09:15:19.098Z,61.53
2019-04-20T09:18:02.062Z,60.40
2019-04-20T09:20:41.159Z,59.97
2019-04-20T09:23:21.438Z,60.63
2019-04-20T09:26:10.202Z,60.93
2019-04-20T09:28:39.582Z,61.83
2019-04-20T09:31:20.185Z,61.23
2019-04-20T09:34:15.869Z,61.40
2019-04-20T09:36:53.769Z,61.20
2019-04-20T09:39:32.674Z,60.43
2019-04-20T09:42:15.259Z,61.03
2019-04-20T09:44:48.780Z,60.80
2019-04-20T09:47:25.452Z,62.07
2019-04-20T09:49:58.090Z,61.20
2019-04-20T09:52:31.279Z,60.67
2019-04-20T09:55:03.229Z,61.10
2019-04-20T09:57:38.080Z,60.90
2019-04-20T10:00:13.394Z,60.10
2019-04-20T10:02:29.868Z,60.83
2019-04-20T10:04:57.633Z,62.23
2019-04-20T10:07:32.523Z,60.90
2019-04-20T10:09:59.944Z,62.40
2019-04-20T10:12:29.891Z,60.97
2019-04-20T10:15:04.152Z,61.30
2019-04-20T10:17:33.252Z,62.60
2019-04-20T10:20:09.614Z,60.07
2019-04-20T10:22:33.883Z,60.77
2019-04-20T10:25:04.565Z,62.43
2019-04-20T10:27:34.769Z,62.10
2019-04-20T10:30:06.159Z,61.17
2019-04-20T10:32:40.339Z,60.30
2019-04-20T10:35:08.960Z,61.13
2019-04-20T10:37:43.534Z,60.47
2019-04-20T10:40:27.956Z,59.37
2019-04-20T10:42:46.067Z,59.70
2019-04-20T10:45:17.023Z,61.20
2019-04-20T10:47:47.289Z,60.67
2019-04-20T10:50:18.816Z,60.50
2019-04-20T10:52:49.888Z,60.37
2019-04-20T10:55:20.748Z,59.67
2019-04-20T10:57:51.398Z,60.03
2019-04-20T11:00:37.750Z,60.57
2019-04-20T11:03:08.111Z,60.57
2019-04-20T11:05:42.251Z,61.67
2019-04-20T11:08:12.930Z,60.43
2019-04-20T11:10:55.448Z,59.53
2019-04-20T11:13:15.300Z,60.90
2019-04-20T11:15:46.295Z,60.00
2019-04-20T11:18:17.602Z,60.30
2019-04-20T11:20:47.522Z,61.07
2019-04-20T11:23:18.198Z,60.77
2019-04-20T11:25:50.391Z,59.90
2019-04-20T11:28:21.902Z,60.43
2019-04-20T11:30:52.187Z,60.97
2019-04-20T11:33:22.353Z,60.23
2019-04-20T11:35:52.537Z,60.83
2019-04-20T11:38:22.197Z,59.20
2019-04-20T11:41:04.199Z,61.00
2019-04-20T11:43:24.327Z,60.77
2019-04-20T11:45:54.431Z,62.17
2019-04-20T11:48:25.489Z,60.07
2019-04-20T11:50:55.837Z,61.53
2019-04-20T11:53:26.830Z,60.80
2019-04-20T11:55:58.388Z,60.57
2019-04-20T11:58:30.318Z,59.77
2019-04-20T12:01:08.651Z,59.70
2019-04-20T12:03:47.830Z,60.80
2019-04-20T12:06:08.317Z,60.70
2019-04-20T12:08:56.891Z,60.97
2019-04-20T12:11:39.895Z,61.57
2019-04-20T12:13:58.659Z,60.47
2019-04-20T12:16:29.823Z,60.73
2019-04-20T12:19:00.166Z,62.77
2019-04-20T12:21:30.719Z,62.73
2019-04-20T12:24:00.595Z,61.77
2019-04-20T12:26:31.014Z,62.13
2019-04-20T12:29:01.406Z,60.97
2019-04-20T12:31:31.585Z,62.37
2019-04-20T12:34:02.295Z,61.30
2019-04-20T12:36:33.221Z,61.87
2019-04-20T12:39:05.251Z,61.60
2019-04-20T12:41:43.357Z,61.47
2019-04-20T12:44:07.931Z,62.60
2019-04-20T12:46:38.275Z,61.17
2019-04-20T12:49:09.428Z,60.93
2019-04-20T12:51:47.426Z,60.80
2019-04-20T12:54:10.989Z,61.27
2019-04-20T12:56:40.688Z,61.97
2019-04-20T12:59:11.597Z,62.17
2019-04-20T13:01:41.587Z,60.57
2019-04-20T13:04:12.152Z,62.10
2019-04-20T13:06:42.857Z,61.80
2019-04-20T13:09:12.991Z,61.80
2019-04-20T13:12:15.470Z,61.23
2019-04-20T13:14:58.211Z,61.77
2019-04-20T13:17:28.313Z,61.87
2019-04-20T13:19:59.410Z,60.40
2019-04-20T13:22:29.604Z,62.07
2019-04-20T13:25:01.113Z,59.30
2019-04-20T13:27:32.723Z,66.73
2019-04-20T13:30:03.213Z,73.70
2019-04-20T13:32:34.299Z,65.33
2019-04-20T13:35:04.537Z,68.30
2019-04-20T13:37:36.805Z,70.30
2019-04-20T13:40:07.086Z,73.67
2019-04-20T13:42:38.173Z,70.23
2019-04-20T13:45:08.834Z,60.97
2019-04-20T13:47:39.038Z,61.07
2019-04-20T13:50:12.400Z,62.27
2019-04-20T13:52:41.067Z,61.37
2019-04-20T13:55:12.771Z,60.73
2019-04-20T13:57:55.818Z,61.20
2019-04-20T14:00:58.988Z,61.17
2019-04-20T14:03:30.554Z,61.43
2019-04-20T14:06:00.693Z,60.73
2019-04-20T14:08:31.759Z,60.97
2019-04-20T14:11:01.508Z,60.03
2019-04-20T14:13:38.109Z,59.87
2019-04-20T14:16:03.116Z,60.97
2019-04-20T14:18:33.280Z,60.90
2019-04-20T14:21:03.223Z,61.00
2019-04-20T14:23:32.966Z,60.30
2019-04-20T14:26:03.174Z,61.87
2019-04-20T14:28:33.301Z,60.67
2019-04-20T14:31:03.773Z,61.17
2019-04-20T14:33:34.807Z,60.20
2019-04-20T14:36:05.208Z,60.27
2019-04-20T14:38:36.180Z,61.20
2019-04-20T14:41:06.404Z,60.17
2019-04-20T14:43:37.028Z,60.33
2019-04-20T14:46:10.503Z,60.73
2019-04-20T14:48:40.654Z,61.10
2019-04-20T14:51:11.808Z,60.60
2019-04-20T14:53:43.289Z,61.00
2019-04-20T14:56:13.593Z,61.00
2019-04-20T14:58:51.358Z,62.03
2019-04-20T15:01:42.813Z,60.43
2019-04-20T15:04:17.737Z,60.03
2019-04-20T15:06:44.488Z,60.27
2019-04-20T15:09:14.809Z,60.13
2019-04-20T15:11:46.561Z,59.93
2019-04-20T15:14:16.489Z,61.90
2019-04-20T15:16:46.780Z,60.17
2019-04-20T15:19:33.711Z,60.93
2019-04-20T15:22:05.477Z,59.63
2019-04-20T15:24:35.629Z,62.00
2019-04-20T15:27:06.697Z,60.30
2019-04-20T15:29:38.122Z,59.77
2019-04-20T15:32:08.191Z,60.17
2019-04-20T15:34:39.227Z,61.43
2019-04-20T15:37:09.967Z,60.53
2019-04-20T15:39:41.079Z,61.00
2019-04-20T15:42:11.559Z,60.47
2019-04-20T15:44:41.489Z,60.60
2019-04-20T15:47:13.227Z,60.30
2019-04-20T15:49:44.180Z,59.70
2019-04-20T15:52:22.108Z,60.50
2019-04-20T15:54:45.647Z,60.57
2019-04-20T15:57:21.277Z,59.60
2019-04-20T15:59:46.874Z,59.10
2019-04-20T16:02:23.078Z,60.50
2019-04-20T16:05:06.059Z,59.70
2019-04-20T16:07:41.896Z,60.77
2019-04-20T16:10:07.744Z,59.17
2019-04-20T16:12:38.642Z,60.27
2019-04-20T16:15:09.676Z,60.33
2019-04-20T16:17:45.382Z,61.33
2019-04-20T16:20:15.715Z,60.80
2019-04-20T16:22:42.807Z,60.27
2019-04-20T16:25:25.821Z,60.57
2019-04-20T16:27:55.949Z,60.70
2019-04-20T16:30:25.891Z,59.53
2019-04-20T16:32:56.592Z,60.37
2019-04-20T16:35:28.676Z,60.93
2019-04-20T16:38:04.429Z,60.93
2019-04-20T16:40:35.574Z,64.37
2019-04-20T16:43:15.757Z,63.50
2019-04-20T16:45:37.150Z,62.00
2019-04-20T16:48:08.391Z,63.90
2019-04-20T16:50:38.392Z,64.40
2019-04-20T16:53:10.895Z,61.03
2019-04-20T16:55:40.982Z,58.60
2019-04-20T16:58:10.844Z,61.10
2019-04-20T17:00:41.233Z,59.27
2019-04-20T17:03:11.236Z,60.07
2019-04-20T17:05:41.255Z,57.73
2019-04-20T17:08:11.237Z,59.10
2019-04-20T17:10:42.203Z,59.67
2019-04-20T17:13:11.878Z,59.30
2019-04-20T17:15:41.732Z,58.70
2019-04-20T17:18:11.787Z,59.60
2019-04-20T17:20:41.591Z,60.30
2019-04-20T17:23:11.274Z,58.03
2019-04-20T17:25:41.939Z,58.70
2019-04-20T17:28:46.942Z,58.73
2019-04-20T17:31:33.530Z,59.43
2019-04-20T17:34:31.448Z,58.87
2019-04-20T17:36:44.469Z,59.27
2019-04-20T17:39:25.913Z,58.87
2019-04-20T17:42:03.458Z,59.43
2019-04-20T17:44:31.440Z,60.60
2019-04-20T17:47:00.663Z,59.63
2019-04-20T17:49:38.105Z,58.70
2019-04-20T17:52:17.700Z,59.13
2019-04-20T17:54:33.682Z,58.83
2019-04-20T17:57:04.471Z,58.67
2019-04-20T17:59:35.842Z,58.77
2019-04-20T18:02:33.322Z,59.00
2019-04-20T18:05:26.939Z,58.57
2019-04-20T18:07:56.560Z,58.77
2019-04-20T18:10:26.173Z,58.50
2019-04-20T18:12:47.618Z,58.43
2019-04-20T18:15:31.421Z,58.03
2019-04-20T18:18:23.980Z,57.13
2019-04-20T18:20:54.716Z,57.03
2019-04-20T18:23:31.975Z,56.70
2019-04-20T18:26:17.138Z,57.43
2019-04-20T18:28:54.395Z,56.80
2019-04-20T18:31:09.102Z,55.87
2019-04-20T18:33:40.449Z,55.97
2019-04-20T18:36:13.367Z,55.57
2019-04-20T18:38:51.482Z,56.17
2019-04-20T18:41:24.338Z,55.70
2019-04-20T18:43:50.795Z,55.80
2019-04-20T18:46:33.062Z,54.97
2019-04-20T18:49:04.875Z,55.10
2019-04-20T18:51:21.668Z,55.40
2019-04-20T18:53:53.452Z,54.97
2019-04-20T18:56:28.389Z,55.40
2019-04-20T18:58:55.579Z,54.77
2019-04-20T19:01:31.962Z,54.47
2019-04-20T19:03:57.350Z,54.47
2019-04-20T19:06:27.751Z,54.53
2019-04-20T19:08:58.877Z,54.87
2019-04-20T19:11:28.974Z,55.10
2019-04-20T19:14:26.186Z,54.43
2019-04-20T19:17:04.537Z,53.87
2019-04-20T19:19:37.553Z,54.37
2019-04-20T19:22:01.765Z,54.10
2019-04-20T19:24:36.053Z,54.47
2019-04-20T19:27:08.129Z,54.03
2019-04-20T19:29:43.302Z,54.23
2019-04-20T19:32:24.964Z,53.23
2019-04-20T19:34:50.209Z,54.80
2019-04-20T19:37:15.603Z,53.97
2019-04-20T19:39:53.263Z,53.87
2019-04-20T19:42:29.786Z,53.93
2019-04-20T19:44:56.521Z,53.50
2019-04-20T19:47:37.094Z,53.70
2019-04-20T19:50:18.494Z,53.30
2019-04-20T19:52:43.341Z,53.67
2019-04-20T19:55:10.815Z,53.47
2019-04-20T19:57:37.333Z,53.17
2019-04-20T19:59:56.237Z,53.37
2019-04-20T20:02:25.933Z,53.43
2019-04-20T20:05:01.579Z,53.17
2019-04-20T20:07:33.953Z,52.90
2019-04-20T20:10:02.277Z,53.33
2019-04-20T20:12:31.435Z,53.07
2019-04-20T20:15:01.711Z,53.17
2019-04-20T20:17:48.122Z,54.00
2019-04-20T20:20:26.284Z,52.27
2019-04-20T20:22:41.121Z,52.73
2019-04-20T20:25:07.282Z,52.50
2019-04-20T20:27:47.577Z,52.50
2019-04-20T20:30:20.446Z,52.10
2019-04-20T20:32:55.115Z,53.30
2019-04-20T20:35:16.955Z,52.67
2019-04-20T20:37:50.096Z,51.87
2019-04-20T20:40:23.280Z,51.60
2019-04-20T20:43:01.457Z,51.97
2019-04-20T20:45:29.605Z,52.70
2019-04-20T20:48:09.133Z,51.20
2019-04-20T20:50:42.918Z,51.87
2019-04-20T20:53:06.422Z,52.43
2019-04-20T20:55:35.627Z,51.00
2019-04-20T20:58:06.524Z,51.53
2019-04-20T21:00:38.803Z,52.03
2019-04-20T21:03:05.645Z,51.53
2019-04-20T21:05:31.744Z,52.03
2019-04-20T21:08:01.647Z,54.53
2019-04-20T21:10:37.747Z,51.03
2019-04-20T21:13:05.510Z,51.00
2019-04-20T21:15:35.187Z,50.83
2019-04-20T21:18:29.347Z,51.47
2019-04-20T21:20:53.673Z,51.33
2019-04-20T21:23:22.394Z,51.90
2019-04-20T21:25:59.062Z,51.07
2019-04-20T21:28:28.862Z,51.50
2019-04-20T21:31:06.940Z,51.33
2019-04-20T21:33:34.268Z,51.30
2019-04-20T21:36:02.744Z,50.57
2019-04-20T21:38:36.987Z,51.47
2019-04-20T21:41:09.354Z,51.47
2019-04-20T21:43:39.343Z,52.13
2019-04-20T21:46:10.226Z,51.63
2019-04-20T21:48:51.429Z,52.37
2019-04-20T21:51:26.411Z,51.53
2019-04-20T21:53:42.384Z,51.97
2019-04-20T21:56:12.295Z,51.33
2019-04-20T21:58:49.455Z,50.97
2019-04-20T22:01:22.648Z,52.47
2019-04-20T22:03:48.009Z,51.73
2019-04-20T22:06:18.322Z,51.20
2019-04-20T22:08:54.515Z,50.97
2019-04-20T22:11:20.048Z,50.93
2019-04-20T22:13:51.691Z,50.90
2019-04-20T22:16:22.673Z,51.23
2019-04-20T22:19:09.117Z,51.23
2019-04-20T22:21:35.467Z,51.67
2019-04-20T22:24:09.400Z,51.53
2019-04-20T22:26:34.667Z,51.77
2019-04-20T22:28:58.459Z,52.07
2019-04-20T22:31:28.139Z,52.07
2019-04-20T22:34:02.240Z,51.53
2019-04-20T22:36:33.908Z,51.83
2019-04-20T22:39:23.579Z,52.17
2019-04-20T22:42:00.145Z,51.17
2019-04-20T22:44:28.317Z,51.73
2019-04-20T22:46:58.354Z,51.67
2019-04-20T22:49:47.287Z,51.43
2019-04-20T22:52:11.828Z,51.80
2019-04-20T22:54:46.659Z,51.60
2019-04-20T22:57:12.442Z,51.30
2019-04-20T22:59:44.727Z,51.77
2019-04-20T23:02:08.083Z,51.87
2019-04-20T23:04:38.961Z,52.53
2019-04-20T23:07:10.605Z,52.27
2019-04-20T23:09:49.090Z,51.33
2019-04-20T23:12:17.604Z,51.03
2019-04-20T23:14:44.745Z,52.50
2019-04-20T23:17:18.455Z,50.63
2019-04-20T23:19:51.897Z,51.57
2019-04-20T23:22:19.068Z,51.47
2019-04-20T23:24:49.260Z,51.07
2019-04-20T23:27:25.554Z,51.90
2019-04-20T23:29:51.168Z,51.30
2019-04-20T23:32:22.490Z,51.60
2019-04-20T23:34:57.704Z,51.57
2019-04-20T23:37:30.993Z,51.70
2019-04-20T23:39:56.494Z,50.90
2019-04-20T23:42:36.094Z,50.87
2019-04-20T23:45:37.219Z,51.37
2019-04-20T23:48:08.408Z,51.27
2019-04-20T23:50:54.118Z,51.17
2019-04-20T23:53:25.943Z,51.37
2019-04-20T23:55:41.557Z,51.23
2019-04-20T23:58:12.954Z,51.60
